Airfield :
LOGIN :

Register | Disclaimer

   EN    FR    IT 

 










Legend :    VFR   Marginal VFR   IFR   Intensive IFR   Very Intensive IFR
Visi :
Ceiling :
>= 8 km
>= 3000ft
5 to 8 km
1000 to 3000 ft
1500m to 5 km
500 to 1000 ft
800 to 1500m
200 to 500 ft
< 800m
< 200 ft
Symbols :   Thunderstorms  Fog  Heavy snow  Heavy precipitations  Wind > 20 kt
SIGMETs :     Misc.  Thunderstorms  Icing  Turbulence  Mountain Waves  Volcanic Ashes






- Airport Elevation : 370 ft


EBBE - Beauvechain AB

CURRENT METAR :
  • 211751Z AUTO 26006KT 9999 DZ FEW009/// SCT014/// BKN049/// 08/06 Q1013 GRN

EXPIRED METARs :
  • 211725Z AUTO 25006KT 9999 FEW028/// BKN080/// 07/05 Q1012 BLU
  • 211655Z AUTO 28007KT 9999 -DZ BKN049/// 08/05 Q1012 BLU
  • 211625Z AUTO 29007KT 9999 FEW038/// BKN048/// 08/05 Q1012 BLU
  • 211555Z AUTO 31009KT 9999 -RA FEW013/// SCT038/// BKN046/// 08/05 Q1011 BLU
  • 211549Z AUTO 32007KT 6000 RA FEW017/// SCT041/// BKN049/// 09/07 Q1011 WHT
  • 211525Z AUTO 31010KT 9999 -DZ FEW018/// SCT021/// BKN033/// 09/06 Q1010 WHT
  • 211506Z AUTO 29008KT 9999 FEW019/// SCT023/// BKN033/// 10/07 Q1010 WHT

TAF TAF EBBE
Valid from the 21 at 13:00 until the 21 at 22:00 UTC


211141Z 2113/2122 26015G25KT 9999 FEW020 SCT040
TEMPO 2113/2118 27020G35KT 6000 -SHRA FEW010 SCT018TCU BKN025
BECMG 2114/2116 30007KT



MET'MAP, your aeronautical weather chart ! - Copyright ORBIFLY December 2007 - Disclaimer

ORBIFLY MET'MAP TEAM :

Programming & Development : Alexandra Zaïnal
Concept & original design : Baudouin d'Aumeries
Assistance for programming : Marc-Olivier Méhu
Technical & hardware support : Manuel Goepfert

Contact : metmap@orbifly.com




SOURCES & CREDITS :

   NOAA